Time;durP1;ratioP1;P1;durP2;ratioP2;P2;SDS_P1;SDS_P2;PMS_P1;PMS_P2;Temp;Humidity;BMP_temperature;BMP_pressure;BME280_temperature;BME280_humidity;BME280_pressure;Samples;Min_cycle;Max_cycle;Signal;HPM_P1;HPM_P2
2022/02/26 00:02:14;;;;;;;45.95;20.27;;;;;;;;;;4990016;28;20508;-62
2022/02/26 00:04:39;;;;;;;50.72;20.08;;;;;;;;;;4989510;28;20436;-61
2022/02/26 00:07:04;;;;;;;52.80;19.45;;;;;;;;;;4989298;28;20482;-61
2022/02/26 00:09:30;;;;;;;45.00;18.88;;;;;;;;;;4990742;28;20428;-62
2022/02/26 00:11:55;;;;;;;51.15;19.75;;;;;;;;;;4989306;28;20447;-61
2022/02/26 00:14:20;;;;;;;49.67;18.63;;;;;;;;;;4989481;28;20024;-62
2022/02/26 00:16:46;;;;;;;42.22;18.77;;;;;;;;;;4989522;28;20037;-61
2022/02/26 00:19:11;;;;;;;47.03;18.38;;;;;;;;;;4989745;28;20106;-62
2022/02/26 00:21:36;;;;;;;46.28;18.80;;;;;;;;;;4989182;28;20418;-61
2022/02/26 00:24:02;;;;;;;45.92;18.98;;;;;;;;;;4989561;28;20029;-61
2022/02/26 00:26:27;;;;;;;44.50;18.17;;;;;;;;;;4989081;28;20321;-62
2022/02/26 00:28:53;;;;;;;41.38;18.15;;;;;;;;;;4989185;28;20439;-61
2022/02/26 00:31:18;;;;;;;43.85;17.73;;;;;;;;;;4989249;28;20555;-62
2022/02/26 00:33:44;;;;;;;40.13;18.23;;;;;;;;;;4990928;28;20351;-62
2022/02/26 00:36:09;;;;;;;44.60;18.08;;;;;;;;;;4989430;28;20456;-61
2022/02/26 00:38:35;;;;;;;39.42;17.13;;;;;;;;;;4988365;28;20052;-62
2022/02/26 00:41:00;;;;;;;42.60;17.63;;;;;;;;;;4989694;28;20613;-61
2022/02/26 00:43:25;;;;;;;45.08;17.15;;;;;;;;;;4988963;28;20402;-61
2022/02/26 00:45:51;;;;;;;41.08;15.95;;;;;;;;;;4988546;28;20436;-61
2022/02/26 00:48:16;;;;;;;40.03;17.15;;;;;;;;;;4989851;28;20551;-61
2022/02/26 00:50:41;;;;;;;46.70;18.45;;;;;;;;;;4970864;28;20107;-63
2022/02/26 00:53:07;;;;;;;40.13;17.08;;;;;;;;;;4989999;28;20037;-61
2022/02/26 00:55:32;;;;;;;45.47;17.08;;;;;;;;;;4988910;28;20337;-61
2022/02/26 00:58:00;;;;;;;38.20;16.42;;;;;;;;;;4989762;28;20467;-61
2022/02/26 01:00:25;;;;;;;35.40;16.30;;;;;;;;;;4990525;28;20502;-61
2022/02/26 01:02:51;;;;;;;43.83;17.50;;;;;;;;;;4998565;28;20467;-61
2022/02/26 01:05:16;;;;;;;41.95;17.63;;;;;;;;;;4988514;28;20444;-61
2022/02/26 01:07:41;;;;;;;36.72;16.13;;;;;;;;;;4990443;28;20448;-61
2022/02/26 01:10:08;;;;;;;41.05;16.55;;;;;;;;;;4990008;28;20384;-61
2022/02/26 01:12:33;;;;;;;39.45;16.00;;;;;;;;;;4988793;28;20458;-61
2022/02/26 01:14:58;;;;;;;37.50;15.52;;;;;;;;;;4988501;28;20432;-62
2022/02/26 01:17:24;;;;;;;42.85;16.83;;;;;;;;;;4989284;28;20348;-61
2022/02/26 01:19:50;;;;;;;43.40;16.60;;;;;;;;;;4988303;28;20032;-61
2022/02/26 01:22:16;;;;;;;42.40;16.25;;;;;;;;;;4989208;28;20348;-61
2022/02/26 01:24:41;;;;;;;43.03;17.10;;;;;;;;;;4989735;28;20348;-61
2022/02/26 01:27:07;;;;;;;39.00;15.88;;;;;;;;;;4988843;28;20399;-61
2022/02/26 01:29:32;;;;;;;38.53;15.00;;;;;;;;;;4988603;28;20436;-61
2022/02/26 01:31:58;;;;;;;36.75;16.00;;;;;;;;;;4988282;28;20029;-63
2022/02/26 01:34:23;;;;;;;41.97;17.02;;;;;;;;;;4988685;28;20427;-62
2022/02/26 01:36:48;;;;;;;37.22;15.00;;;;;;;;;;4988596;28;20341;-61
2022/02/26 01:39:14;;;;;;;39.33;16.88;;;;;;;;;;4988004;28;20367;-61
2022/02/26 01:41:40;;;;;;;40.42;17.08;;;;;;;;;;4989400;28;20432;-61
2022/02/26 01:44:05;;;;;;;39.67;16.33;;;;;;;;;;4989616;28;20507;-62
2022/02/26 01:46:31;;;;;;;37.95;14.88;;;;;;;;;;4993561;28;20323;-61
2022/02/26 01:48:56;;;;;;;31.10;14.88;;;;;;;;;;5008780;28;20419;-61
2022/02/26 01:51:22;;;;;;;37.38;14.68;;;;;;;;;;5009036;28;20447;-61
2022/02/26 01:53:47;;;;;;;41.58;16.05;;;;;;;;;;4990261;28;20359;-62
2022/02/26 01:56:13;;;;;;;36.05;14.45;;;;;;;;;;5007925;28;20443;-61
2022/02/26 01:58:39;;;;;;;35.28;13.05;;;;;;;;;;5010669;28;20408;-61
2022/02/26 02:01:05;;;;;;;50.00;16.05;;;;;;;;;;4993688;28;20402;-61
2022/02/26 02:03:31;;;;;;;40.95;15.02;;;;;;;;;;4993261;28;20426;-62
2022/02/26 02:06:00;;;;;;;37.90;15.23;;;;;;;;;;5011833;28;20466;-61
2022/02/26 02:08:26;;;;;;;39.25;14.43;;;;;;;;;;5012275;28;20340;-62
2022/02/26 02:10:53;;;;;;;38.13;14.40;;;;;;;;;;5011771;28;20309;-61
2022/02/26 02:13:19;;;;;;;33.15;15.68;;;;;;;;;;5011733;28;20344;-61
2022/02/26 02:15:44;;;;;;;37.08;15.63;;;;;;;;;;5011709;28;20459;-61
2022/02/26 02:18:12;;;;;;;37.75;15.60;;;;;;;;;;5011516;28;20439;-61
2022/02/26 02:20:39;;;;;;;37.88;14.80;;;;;;;;;;5011725;28;20047;-61
2022/02/26 02:23:04;;;;;;;35.08;14.95;;;;;;;;;;5011606;28;20436;-61
2022/02/26 02:25:31;;;;;;;41.25;16.92;;;;;;;;;;5011414;28;20359;-62
2022/02/26 02:27:58;;;;;;;38.33;14.82;;;;;;;;;;5011533;28;20032;-61
2022/02/26 02:30:25;;;;;;;38.85;15.15;;;;;;;;;;5011611;28;20343;-61
2022/02/26 02:32:50;;;;;;;33.67;14.65;;;;;;;;;;5010756;28;20043;-62
2022/02/26 02:35:23;;;;;;;34.85;13.40;;;;;;;;;;4993219;28;20423;-61
2022/02/26 02:37:49;;;;;;;48.25;16.15;;;;;;;;;;5010286;28;20044;-62
2022/02/26 02:40:14;;;;;;;40.65;15.68;;;;;;;;;;5011927;28;20436;-61
2022/02/26 02:42:39;;;;;;;33.90;12.60;;;;;;;;;;5010934;28;20412;-61
2022/02/26 02:45:05;;;;;;;39.80;15.55;;;;;;;;;;5010963;28;20459;-62
2022/02/26 02:47:30;;;;;;;35.45;15.35;;;;;;;;;;5011062;28;20325;-62
2022/02/26 02:49:56;;;;;;;44.45;15.48;;;;;;;;;;4992717;28;20367;-61
2022/02/26 02:52:21;;;;;;;44.72;16.88;;;;;;;;;;5011144;28;20094;-62
2022/02/26 02:54:46;;;;;;;38.10;14.45;;;;;;;;;;5010741;28;20416;-61
2022/02/26 02:57:12;;;;;;;36.50;13.77;;;;;;;;;;5010640;28;20451;-61
2022/02/26 02:59:37;;;;;;;37.50;15.20;;;;;;;;;;5010581;28;20321;-61
2022/02/26 03:02:02;;;;;;;40.40;15.23;;;;;;;;;;5010624;28;20438;-61
2022/02/26 03:04:28;;;;;;;39.15;14.00;;;;;;;;;;5010577;28;20108;-61
2022/02/26 03:06:53;;;;;;;35.03;14.60;;;;;;;;;;5011113;28;20321;-60
2022/02/26 03:09:18;;;;;;;34.47;14.60;;;;;;;;;;5010703;28;20052;-61
2022/02/26 03:11:44;;;;;;;41.42;14.70;;;;;;;;;;5010152;28;20036;-60
2022/02/26 03:14:09;;;;;;;35.72;14.82;;;;;;;;;;5011116;28;20442;-60
2022/02/26 03:16:34;;;;;;;32.80;14.73;;;;;;;;;;5011125;28;20464;-61
2022/02/26 03:19:00;;;;;;;33.70;14.82;;;;;;;;;;5010195;28;20366;-60
2022/02/26 03:21:26;;;;;;;35.38;14.25;;;;;;;;;;5010391;28;20028;-61
2022/02/26 03:23:51;;;;;;;36.63;15.45;;;;;;;;;;5010360;28;20068;-61
2022/02/26 03:26:16;;;;;;;36.22;14.38;;;;;;;;;;5010563;28;20408;-60
2022/02/26 03:28:42;;;;;;;31.08;14.70;;;;;;;;;;5009711;28;20075;-62
2022/02/26 03:31:07;;;;;;;31.40;14.52;;;;;;;;;;5009816;28;20368;-61
2022/02/26 03:33:32;;;;;;;32.67;14.27;;;;;;;;;;5009639;28;20331;-61
2022/02/26 03:35:58;;;;;;;41.10;14.95;;;;;;;;;;5011069;28;20423;-61
2022/02/26 03:38:23;;;;;;;35.33;14.20;;;;;;;;;;5009166;28;20452;-60
2022/02/26 03:40:48;;;;;;;37.30;14.57;;;;;;;;;;5010006;28;20432;-60
2022/02/26 03:43:13;;;;;;;36.97;13.57;;;;;;;;;;5009779;28;20425;-60
2022/02/26 03:45:39;;;;;;;35.45;14.05;;;;;;;;;;5009755;28;20392;-61
2022/02/26 03:48:04;;;;;;;38.25;14.05;;;;;;;;;;5009256;28;20492;-61
2022/02/26 03:50:30;;;;;;;33.30;15.10;;;;;;;;;;5011305;28;20459;-60
2022/02/26 03:52:55;;;;;;;32.85;14.10;;;;;;;;;;5009931;28;20394;-62
2022/02/26 03:55:20;;;;;;;29.52;14.43;;;;;;;;;;5009670;28;20107;-61
2022/02/26 03:57:46;;;;;;;30.13;13.25;;;;;;;;;;5009420;28;20447;-61
2022/02/26 04:00:12;;;;;;;29.05;13.07;;;;;;;;;;5010402;28;20529;-61
2022/02/26 04:02:38;;;;;;;32.05;15.00;;;;;;;;;;5009196;28;20423;-60
2022/02/26 04:05:04;;;;;;;32.72;14.27;;;;;;;;;;5009517;28;20431;-60
2022/02/26 04:07:29;;;;;;;34.55;14.25;;;;;;;;;;5008874;28;20432;-60
2022/02/26 04:09:54;;;;;;;33.28;14.45;;;;;;;;;;5009742;28;20415;-62
2022/02/26 04:12:20;;;;;;;37.72;14.52;;;;;;;;;;5009303;28;20443;-60
2022/02/26 04:14:45;;;;;;;34.03;13.45;;;;;;;;;;5009148;28;20464;-61
2022/02/26 04:17:10;;;;;;;35.95;14.77;;;;;;;;;;5009251;28;20056;-60
2022/02/26 04:19:36;;;;;;;31.13;12.90;;;;;;;;;;4990670;28;20412;-60
2022/02/26 04:22:02;;;;;;;36.00;13.23;;;;;;;;;;4990587;28;20465;-60
2022/02/26 04:24:27;;;;;;;30.83;13.65;;;;;;;;;;5008912;28;20475;-61
2022/02/26 04:26:53;;;;;;;35.28;13.07;;;;;;;;;;5010134;28;20364;-61
2022/02/26 04:29:18;;;;;;;33.50;13.65;;;;;;;;;;5010987;28;20459;-60
2022/02/26 04:31:44;;;;;;;32.75;14.02;;;;;;;;;;5009731;28;20504;-60
2022/02/26 04:34:09;;;;;;;37.22;13.95;;;;;;;;;;5008781;28;20344;-61
2022/02/26 04:36:34;;;;;;;34.40;14.75;;;;;;;;;;5009695;28;20395;-61
2022/02/26 04:39:00;;;;;;;38.10;13.75;;;;;;;;;;5009414;28;20348;-61
2022/02/26 04:41:27;;;;;;;37.35;13.52;;;;;;;;;;4991649;28;20455;-61
2022/02/26 04:43:53;;;;;;;39.40;14.02;;;;;;;;;;5009285;28;20439;-61
2022/02/26 04:46:18;;;;;;;31.63;11.77;;;;;;;;;;5009083;28;20424;-61
2022/02/26 04:48:43;;;;;;;33.65;13.65;;;;;;;;;;5008202;28;20336;-61
2022/02/26 04:51:09;;;;;;;35.60;13.43;;;;;;;;;;5009794;28;20355;-60
2022/02/26 04:53:36;;;;;;;37.72;14.45;;;;;;;;;;5008565;28;20377;-60
2022/02/26 04:56:02;;;;;;;34.22;12.90;;;;;;;;;;5009590;28;20493;-60
2022/02/26 04:58:27;;;;;;;33.55;14.43;;;;;;;;;;5008462;28;20354;-63
2022/02/26 05:00:53;;;;;;;23.15;11.95;;;;;;;;;;5008298;28;20423;-60
2022/02/26 05:03:18;;;;;;;34.75;14.50;;;;;;;;;;5008620;28;20502;-61
2022/02/26 05:05:43;;;;;;;31.45;12.65;;;;;;;;;;5008649;28;20343;-60
2022/02/26 05:08:09;;;;;;;27.70;12.02;;;;;;;;;;5008668;28;20523;-61
2022/02/26 05:10:34;;;;;;;28.23;14.10;;;;;;;;;;5008351;28;20331;-61
2022/02/26 05:12:59;;;;;;;32.35;12.98;;;;;;;;;;5010171;28;20335;-60
2022/02/26 05:15:25;;;;;;;30.92;14.13;;;;;;;;;;5008816;28;20063;-60
2022/02/26 05:17:50;;;;;;;35.45;13.75;;;;;;;;;;5009278;28;20479;-60
2022/02/26 05:20:15;;;;;;;29.02;11.82;;;;;;;;;;5009786;28;20092;-60
2022/02/26 05:22:42;;;;;;;36.42;13.90;;;;;;;;;;5008272;28;20451;-61
2022/02/26 05:25:10;;;;;;;34.17;12.85;;;;;;;;;;5008993;28;20352;-62
2022/02/26 05:27:36;;;;;;;36.47;14.65;;;;;;;;;;5008330;28;20403;-60
2022/02/26 05:30:01;;;;;;;32.83;12.32;;;;;;;;;;5008455;28;20450;-61
2022/02/26 05:32:26;;;;;;;30.60;12.63;;;;;;;;;;5011251;28;20374;-61
2022/02/26 05:34:52;;;;;;;27.50;13.13;;;;;;;;;;5012055;28;20343;-61
2022/02/26 05:37:18;;;;;;;34.72;13.70;;;;;;;;;;5012014;28;20439;-61
2022/02/26 05:39:43;;;;;;;32.95;13.98;;;;;;;;;;5012229;28;20059;-61
2022/02/26 05:42:09;;;;;;;25.85;12.05;;;;;;;;;;5013043;28;20408;-61
2022/02/26 05:44:34;;;;;;;33.83;14.45;;;;;;;;;;5012531;28;20385;-61
2022/02/26 05:46:59;;;;;;;35.03;13.20;;;;;;;;;;5013603;28;20124;-61
2022/02/26 05:49:25;;;;;;;38.90;13.85;;;;;;;;;;5012040;28;20107;-61
2022/02/26 05:51:50;;;;;;;30.35;12.55;;;;;;;;;;5011938;28;20360;-61
2022/02/26 05:54:16;;;;;;;35.58;14.45;;;;;;;;;;5011521;28;20502;-61
2022/02/26 05:56:41;;;;;;;35.30;13.35;;;;;;;;;;5011991;28;20549;-61
2022/02/26 05:59:06;;;;;;;36.33;13.98;;;;;;;;;;5011638;28;20439;-61
2022/02/26 06:01:32;;;;;;;34.13;12.32;;;;;;;;;;5011604;28;20403;-61
2022/02/26 06:03:57;;;;;;;30.73;14.00;;;;;;;;;;5012681;28;20516;-61
2022/02/26 06:06:22;;;;;;;29.27;13.43;;;;;;;;;;5011416;28;20374;-62
2022/02/26 06:08:48;;;;;;;31.27;14.20;;;;;;;;;;5011805;28;20329;-61
2022/02/26 06:11:13;;;;;;;39.28;13.45;;;;;;;;;;5011532;28;20446;-60
2022/02/26 06:13:38;;;;;;;34.67;13.43;;;;;;;;;;5011281;28;20403;-61
2022/02/26 06:16:05;;;;;;;36.47;13.60;;;;;;;;;;5011411;28;20419;-61
2022/02/26 06:18:30;;;;;;;34.45;13.80;;;;;;;;;;5010966;28;20347;-61
2022/02/26 06:20:56;;;;;;;37.75;13.68;;;;;;;;;;5011451;28;20083;-61
2022/02/26 06:23:21;;;;;;;37.03;14.43;;;;;;;;;;5011531;28;20036;-61
2022/02/26 06:25:46;;;;;;;35.10;14.07;;;;;;;;;;5011184;28;20328;-61
2022/02/26 06:28:12;;;;;;;31.30;13.65;;;;;;;;;;5011485;28;20447;-61
2022/02/26 06:30:38;;;;;;;33.63;13.43;;;;;;;;;;5010807;28;20320;-61
2022/02/26 06:33:03;;;;;;;37.47;14.50;;;;;;;;;;5011836;28;20435;-61
2022/02/26 06:35:28;;;;;;;30.35;13.05;;;;;;;;;;5011032;28;20025;-61
2022/02/26 06:37:54;;;;;;;33.00;13.75;;;;;;;;;;4982458;28;20465;-61
2022/02/26 06:40:19;;;;;;;28.85;13.00;;;;;;;;;;4990273;28;20314;-62
2022/02/26 06:42:45;;;;;;;34.38;12.98;;;;;;;;;;4990903;28;20384;-62
2022/02/26 06:45:10;;;;;;;32.95;14.00;;;;;;;;;;4991117;28;20422;-62
2022/02/26 06:47:36;;;;;;;32.08;13.55;;;;;;;;;;4991204;28;20347;-62
2022/02/26 06:50:01;;;;;;;28.25;13.20;;;;;;;;;;4990898;28;20052;-62
2022/02/26 06:52:28;;;;;;;40.35;14.15;;;;;;;;;;4991175;28;20486;-61
2022/02/26 06:54:53;;;;;;;34.83;15.18;;;;;;;;;;4990556;28;20448;-62
2022/02/26 06:57:19;;;;;;;29.27;13.25;;;;;;;;;;4990990;28;20486;-62
2022/02/26 06:59:44;;;;;;;30.73;12.82;;;;;;;;;;4990448;28;20446;-61
2022/02/26 07:02:09;;;;;;;34.33;14.70;;;;;;;;;;4990918;28;20316;-61
2022/02/26 07:04:35;;;;;;;29.75;13.77;;;;;;;;;;4990705;28;20329;-62
2022/02/26 07:07:00;;;;;;;29.75;13.50;;;;;;;;;;4990770;28;20448;-61
2022/02/26 07:09:27;;;;;;;34.13;13.00;;;;;;;;;;4990511;28;20360;-61
2022/02/26 07:11:52;;;;;;;41.03;15.30;;;;;;;;;;4991074;28;20451;-61
2022/02/26 07:14:17;;;;;;;35.72;13.98;;;;;;;;;;4990371;28;20417;-61
2022/02/26 07:16:43;;;;;;;30.63;13.40;;;;;;;;;;4992074;28;20486;-61
2022/02/26 07:19:09;;;;;;;33.35;14.38;;;;;;;;;;4990047;28;20511;-61
2022/02/26 07:21:35;;;;;;;39.22;15.00;;;;;;;;;;4991135;28;20503;-62
2022/02/26 07:24:00;;;;;;;31.05;13.43;;;;;;;;;;4990880;28;20420;-62
2022/02/26 07:26:27;;;;;;;29.58;13.95;;;;;;;;;;4990832;28;20474;-62
2022/02/26 07:28:53;;;;;;;37.20;14.18;;;;;;;;;;4990382;28;20327;-61
2022/02/26 07:31:18;;;;;;;31.55;13.38;;;;;;;;;;4989831;28;20356;-62
2022/02/26 07:33:43;;;;;;;38.10;14.98;;;;;;;;;;4991183;28;20029;-61
2022/02/26 07:36:09;;;;;;;29.00;13.00;;;;;;;;;;4989901;28;20448;-62
2022/02/26 07:38:35;;;;;;;35.00;13.25;;;;;;;;;;5003051;28;20367;-61
2022/02/26 07:41:00;;;;;;;35.03;14.30;;;;;;;;;;5010547;28;20094;-61
2022/02/26 07:43:26;;;;;;;32.95;13.95;;;;;;;;;;5009993;28;20447;-61
2022/02/26 07:45:51;;;;;;;33.67;14.18;;;;;;;;;;5009643;28;20433;-62
2022/02/26 07:48:17;;;;;;;37.95;14.45;;;;;;;;;;5010524;28;20347;-61
2022/02/26 07:50:42;;;;;;;31.90;14.02;;;;;;;;;;5009164;28;20522;-61
2022/02/26 07:53:08;;;;;;;32.50;14.32;;;;;;;;;;5009630;28;20451;-62
2022/02/26 07:55:34;;;;;;;34.10;13.32;;;;;;;;;;5008311;28;20032;-61
2022/02/26 07:58:01;;;;;;;28.63;12.15;;;;;;;;;;5009287;28;20367;-61
2022/02/26 08:00:26;;;;;;;30.95;13.20;;;;;;;;;;5009103;28;20408;-61
2022/02/26 08:02:52;;;;;;;30.15;13.48;;;;;;;;;;5009484;28;20388;-61
2022/02/26 08:05:18;;;;;;;26.55;12.10;;;;;;;;;;5009677;28;20032;-61
2022/02/26 08:07:45;;;;;;;27.33;12.07;;;;;;;;;;5009347;28;20458;-61
2022/02/26 08:10:11;;;;;;;29.45;13.27;;;;;;;;;;5009396;28;20503;-62
2022/02/26 08:12:37;;;;;;;30.35;12.80;;;;;;;;;;5009758;28;20211;-62
2022/02/26 08:15:03;;;;;;;34.65;12.85;;;;;;;;;;5011259;28;20036;-61
2022/02/26 08:17:28;;;;;;;29.10;12.68;;;;;;;;;;5009389;28;20369;-61
2022/02/26 08:19:53;;;;;;;31.60;13.40;;;;;;;;;;4991697;28;20327;-62
2022/02/26 08:22:18;;;;;;;33.40;11.98;;;;;;;;;;5008847;28;20421;-61
2022/02/26 08:24:44;;;;;;;32.30;13.80;;;;;;;;;;4991872;28;20423;-62
2022/02/26 08:27:09;;;;;;;30.85;13.70;;;;;;;;;;5008797;28;20422;-62
2022/02/26 08:29:34;;;;;;;26.45;13.23;;;;;;;;;;4990928;28;20071;-62
2022/02/26 08:32:00;;;;;;;29.92;12.05;;;;;;;;;;5009002;28;20395;-62
2022/02/26 08:34:25;;;;;;;31.10;13.55;;;;;;;;;;5008880;28;20344;-61
2022/02/26 08:36:50;;;;;;;32.00;13.13;;;;;;;;;;5008905;28;20412;-62
2022/02/26 08:39:16;;;;;;;29.45;12.80;;;;;;;;;;5008362;28;20321;-61
2022/02/26 08:41:42;;;;;;;26.08;11.30;;;;;;;;;;5009168;28;20051;-62
2022/02/26 08:44:07;;;;;;;30.77;13.27;;;;;;;;;;5008850;28;20441;-62
2022/02/26 08:46:33;;;;;;;30.95;13.57;;;;;;;;;;5008488;28;20029;-61
2022/02/26 08:48:58;;;;;;;29.85;12.48;;;;;;;;;;5010503;28;20375;-61
2022/02/26 08:51:24;;;;;;;25.63;12.15;;;;;;;;;;5008391;28;20448;-61
2022/02/26 08:53:52;;;;;;;32.30;13.35;;;;;;;;;;5008735;28;20028;-62
2022/02/26 08:56:17;;;;;;;28.90;13.27;;;;;;;;;;5008468;28;20492;-61
2022/02/26 08:58:43;;;;;;;32.67;12.50;;;;;;;;;;5008701;28;20435;-61
2022/02/26 09:01:08;;;;;;;28.05;12.85;;;;;;;;;;5008747;28;20060;-62
2022/02/26 09:03:33;;;;;;;30.00;13.20;;;;;;;;;;5008633;28;20059;-61
2022/02/26 09:05:59;;;;;;;31.65;13.05;;;;;;;;;;5008408;28;20425;-62
2022/02/26 09:08:24;;;;;;;32.75;12.23;;;;;;;;;;5012247;28;20111;-61
2022/02/26 09:10:49;;;;;;;33.13;14.10;;;;;;;;;;5013271;28;20424;-62
2022/02/26 09:13:15;;;;;;;28.45;13.30;;;;;;;;;;5012643;28;20439;-62
2022/02/26 09:15:40;;;;;;;29.88;13.75;;;;;;;;;;5012895;28;20348;-61
2022/02/26 09:18:05;;;;;;;29.38;13.68;;;;;;;;;;5012429;28;20071;-62
2022/02/26 09:20:31;;;;;;;34.58;13.50;;;;;;;;;;5012104;28;20333;-62
2022/02/26 09:22:56;;;;;;;27.33;12.93;;;;;;;;;;5012412;28;20363;-62
2022/02/26 09:25:21;;;;;;;32.00;13.32;;;;;;;;;;5013300;28;20392;-63
2022/02/26 09:27:48;;;;;;;35.00;13.80;;;;;;;;;;5012164;28;20384;-62
2022/02/26 09:30:13;;;;;;;26.92;12.65;;;;;;;;;;5012298;28;20029;-61
2022/02/26 09:32:39;;;;;;;26.73;12.52;;;;;;;;;;5011975;28;20052;-62
2022/02/26 09:35:06;;;;;;;30.15;14.02;;;;;;;;;;5012232;28;21101;-62
2022/02/26 09:37:31;;;;;;;28.90;12.82;;;;;;;;;;5011741;28;20415;-62
2022/02/26 09:39:59;;;;;;;30.80;13.75;;;;;;;;;;5012582;28;20430;-62
2022/02/26 09:42:28;;;;;;;33.63;13.75;;;;;;;;;;5012040;28;20371;-62
2022/02/26 09:44:54;;;;;;;35.22;13.23;;;;;;;;;;5012060;28;20287;-62
2022/02/26 09:47:20;;;;;;;33.15;12.68;;;;;;;;;;5012163;28;20047;-62
2022/02/26 09:49:45;;;;;;;30.38;12.95;;;;;;;;;;5012033;28;20347;-62
2022/02/26 09:52:11;;;;;;;27.80;12.70;;;;;;;;;;5011985;28;20372;-61
2022/02/26 09:54:36;;;;;;;24.67;11.68;;;;;;;;;;5013560;28;20402;-62
2022/02/26 09:57:02;;;;;;;31.25;13.30;;;;;;;;;;5011505;28;20444;-62
2022/02/26 09:59:27;;;;;;;28.88;12.57;;;;;;;;;;5011696;28;20475;-62
2022/02/26 10:02:01;;;;;;;26.88;13.18;;;;;;;;;;5011862;28;20340;-62
2022/02/26 10:04:27;;;;;;;30.23;11.65;;;;;;;;;;5011972;28;20364;-62
2022/02/26 10:07:09;;;;;;;27.42;11.52;;;;;;;;;;5011819;28;20086;-62
2022/02/26 10:09:39;;;;;;;33.10;12.27;;;;;;;;;;5012346;28;20475;-62
2022/02/26 10:12:17;;;;;;;26.13;12.00;;;;;;;;;;5011603;28;20446;-61
2022/02/26 10:14:42;;;;;;;31.67;12.32;;;;;;;;;;5011165;28;20502;-62
2022/02/26 10:17:07;;;;;;;29.65;12.93;;;;;;;;;;5012805;28;20458;-62
2022/02/26 10:19:35;;;;;;;30.73;12.55;;;;;;;;;;5010442;28;20458;-62
2022/02/26 10:22:08;;;;;;;30.85;12.60;;;;;;;;;;5012422;28;20337;-62
2022/02/26 10:24:34;;;;;;;31.13;12.18;;;;;;;;;;5011348;28;20398;-61
2022/02/26 10:27:06;;;;;;;25.65;11.45;;;;;;;;;;5011405;28;20427;-62
2022/02/26 10:29:39;;;;;;;28.45;11.68;;;;;;;;;;5012107;28;20420;-62
2022/02/26 10:32:06;;;;;;;26.20;11.93;;;;;;;;;;5011113;28;20463;-62
2022/02/26 10:34:39;;;;;;;25.10;11.27;;;;;;;;;;5011128;28;20354;-62
2022/02/26 10:37:13;;;;;;;29.95;12.55;;;;;;;;;;5011127;28;20313;-62
2022/02/26 10:39:44;;;;;;;26.48;11.85;;;;;;;;;;4991302;28;20456;-63
2022/02/26 10:42:27;;;;;;;29.90;12.10;;;;;;;;;;4991128;28;20061;-62
2022/02/26 10:45:03;;;;;;;31.35;11.95;;;;;;;;;;4972781;28;20133;-62
2022/02/26 10:47:30;;;;;;;30.02;13.65;;;;;;;;;;4990880;28;20566;-62
2022/02/26 10:49:56;;;;;;;24.85;12.15;;;;;;;;;;4991742;28;20328;-62
2022/02/26 10:52:22;;;;;;;28.33;12.88;;;;;;;;;;4972801;28;20401;-62
2022/02/26 10:54:51;;;;;;;25.30;12.90;;;;;;;;;;4990957;28;20348;-62
2022/02/26 10:57:17;;;;;;;24.48;11.77;;;;;;;;;;4991177;28;20127;-62
2022/02/26 10:59:45;;;;;;;25.23;12.50;;;;;;;;;;4991766;28;20511;-62
2022/02/26 11:02:22;;;;;;;31.27;12.73;;;;;;;;;;4990737;28;20379;-62
2022/02/26 11:04:49;;;;;;;28.52;11.77;;;;;;;;;;4991033;28;20348;-62
2022/02/26 11:07:14;;;;;;;27.58;11.80;;;;;;;;;;4973948;28;20084;-62
2022/02/26 11:09:43;;;;;;;29.15;12.13;;;;;;;;;;4990910;28;20048;-62
2022/02/26 11:12:12;;;;;;;25.83;12.20;;;;;;;;;;4990829;28;20321;-62
2022/02/26 11:14:37;;;;;;;;;;;;;;;;;;4992448;28;20416;-62
2022/02/26 11:17:04;;;;;;;24.75;11.35;;;;;;;;;;4972709;28;20334;-62
2022/02/26 11:19:30;;;;;;;24.83;11.25;;;;;;;;;;4990607;28;20409;-63
2022/02/26 11:21:57;;;;;;;19.55;11.45;;;;;;;;;;4972594;28;20328;-62
2022/02/26 11:24:22;;;;;;;23.45;12.02;;;;;;;;;;4990791;28;20371;-62
2022/02/26 11:26:48;;;;;;;31.75;12.98;;;;;;;;;;4990547;28;20356;-63
2022/02/26 11:29:16;;;;;;;30.27;12.95;;;;;;;;;;4972250;28;20048;-62
2022/02/26 11:32:17;;;;;;;28.67;12.68;;;;;;;;;;4972795;28;20021;-62
2022/02/26 11:34:42;;;;;;;30.25;11.93;;;;;;;;;;4893827;28;20411;-63
2022/02/26 11:37:13;;;;;;;32.70;13.82;;;;;;;;;;4973085;28;20359;-62
2022/02/26 11:39:47;;;;;;;27.10;12.82;;;;;;;;;;5009984;28;20032;-62
2022/02/26 11:42:18;;;;;;;29.45;12.45;;;;;;;;;;4991534;28;20380;-62
2022/02/26 11:45:02;;;;;;;29.45;12.05;;;;;;;;;;5009682;28;20335;-62
2022/02/26 11:47:37;;;;;;;29.40;12.07;;;;;;;;;;5009460;28;20370;-62
2022/02/26 11:50:07;;;;;;;30.23;12.90;;;;;;;;;;5009922;28;20443;-62
2022/02/26 11:52:39;;;;;;;29.17;12.82;;;;;;;;;;5009708;28;20466;-62
2022/02/26 11:55:27;;;;;;;30.15;13.32;;;;;;;;;;5009583;28;20355;-62
2022/02/26 11:57:55;;;;;;;27.35;12.93;;;;;;;;;;5009679;28;20352;-62
2022/02/26 12:00:21;;;;;;;27.02;11.98;;;;;;;;;;5010269;28;20477;-63
2022/02/26 12:03:18;;;;;;;27.83;11.57;;;;;;;;;;5010055;28;20456;-62
2022/02/26 12:05:44;;;;;;;31.50;11.95;;;;;;;;;;5009132;28;20380;-62
2022/02/26 12:08:11;;;;;;;25.30;11.75;;;;;;;;;;5009273;28;20351;-62
2022/02/26 12:10:36;;;;;;;28.25;13.32;;;;;;;;;;5009606;28;20357;-62
2022/02/26 12:13:02;;;;;;;23.02;12.15;;;;;;;;;;5009631;28;20055;-62
2022/02/26 12:15:34;;;;;;;22.98;11.48;;;;;;;;;;4990970;28;20422;-62
2022/02/26 12:18:02;;;;;;;26.98;11.95;;;;;;;;;;5009139;28;20466;-62
2022/02/26 12:20:32;;;;;;;33.53;12.63;;;;;;;;;;5008959;28;20463;-62
2022/02/26 12:23:08;;;;;;;30.35;12.80;;;;;;;;;;5010372;28;20363;-62
2022/02/26 12:25:41;;;;;;;27.15;12.48;;;;;;;;;;5009161;28;20025;-62
2022/02/26 12:28:08;;;;;;;25.33;10.68;;;;;;;;;;5009818;28;20325;-62
2022/02/26 12:31:07;;;;;;;36.88;13.10;;;;;;;;;;5008903;28;20339;-62
2022/02/26 12:33:48;;;;;;;32.10;12.77;;;;;;;;;;5008970;28;20447;-62
2022/02/26 12:36:15;;;;;;;28.80;13.23;;;;;;;;;;5010134;28;20353;-62
2022/02/26 12:38:48;;;;;;;33.70;12.88;;;;;;;;;;5009186;28;20059;-63
2022/02/26 12:41:35;;;;;;;28.98;12.02;;;;;;;;;;4990203;28;20347;-62
2022/02/26 12:44:02;;;;;;;28.88;11.32;;;;;;;;;;5008997;28;20322;-62
2022/02/26 12:46:28;;;;;;;29.05;11.93;;;;;;;;;;5010157;28;20300;-62
2022/02/26 12:48:55;;;;;;;27.00;11.43;;;;;;;;;;5008944;28;20419;-62
2022/02/26 12:51:23;;;;;;;24.35;11.25;;;;;;;;;;5008737;28;20555;-62
2022/02/26 12:53:48;;;;;;;25.42;10.27;;;;;;;;;;5010257;28;20400;-62
2022/02/26 12:56:31;;;;;;;24.45;11.23;;;;;;;;;;4991011;28;20054;-63
2022/02/26 12:59:18;;;;;;;26.52;11.50;;;;;;;;;;5009592;28;20066;-62
2022/02/26 13:01:48;;;;;;;31.52;11.68;;;;;;;;;;5008732;28;20033;-62
2022/02/26 13:04:15;;;;;;;25.00;10.98;;;;;;;;;;5008327;28;20386;-62
2022/02/26 13:06:55;;;;;;;28.40;11.95;;;;;;;;;;5008417;28;20420;-62
2022/02/26 13:09:21;;;;;;;32.20;12.57;;;;;;;;;;5008544;28;20024;-63
2022/02/26 13:11:48;;;;;;;24.63;10.82;;;;;;;;;;5010956;28;20494;-62
2022/02/26 13:14:15;;;;;;;25.42;11.73;;;;;;;;;;5010453;28;20054;-62
2022/02/26 13:16:42;;;;;;;24.27;10.98;;;;;;;;;;5008373;28;20470;-62
2022/02/26 13:19:09;;;;;;;29.60;12.50;;;;;;;;;;5008433;28;20418;-63
2022/02/26 13:21:37;;;;;;;21.42;11.25;;;;;;;;;;5008463;28;20442;-62
2022/02/26 13:24:05;;;;;;;23.45;11.80;;;;;;;;;;5008738;28;20029;-62
2022/02/26 13:26:30;;;;;;;23.90;11.75;;;;;;;;;;5008661;28;20382;-62
2022/02/26 13:28:56;;;;;;;29.40;11.93;;;;;;;;;;5009179;28;20056;-62
2022/02/26 13:31:31;;;;;;;21.95;12.27;;;;;;;;;;5008385;28;20406;-62
2022/02/26 13:34:19;;;;;;;23.02;11.48;;;;;;;;;;5008540;28;20428;-63
2022/02/26 13:36:49;;;;;;;31.50;12.38;;;;;;;;;;5007989;28;20344;-63
2022/02/26 13:39:15;;;;;;;24.58;11.73;;;;;;;;;;5007599;28;20048;-62
2022/02/26 13:41:41;;;;;;;25.40;10.57;;;;;;;;;;5008098;28;20114;-62
2022/02/26 13:44:08;;;;;;;30.33;12.65;;;;;;;;;;5008143;28;20103;-62
2022/02/26 13:46:38;;;;;;;22.15;10.05;;;;;;;;;;5008513;28;20040;-63
2022/02/26 13:49:04;;;;;;;25.70;11.65;;;;;;;;;;4989956;28;20363;-62
2022/02/26 13:51:32;;;;;;;26.98;10.85;;;;;;;;;;5008419;28;20387;-62
2022/02/26 13:53:57;;;;;;;22.13;11.20;;;;;;;;;;5010667;28;20564;-62
2022/02/26 13:56:30;;;;;;;23.08;10.30;;;;;;;;;;5013152;28;20436;-62
2022/02/26 13:58:56;;;;;;;20.77;11.02;;;;;;;;;;5011761;28;20424;-62
2022/02/26 14:01:22;;;;;;;24.58;10.73;;;;;;;;;;5012278;28;20328;-62
2022/02/26 14:03:51;;;;;;;23.30;11.70;;;;;;;;;;5011210;28;20361;-62
2022/02/26 14:06:17;;;;;;;;;;;;;;;;;;5012056;28;20339;-63
2022/02/26 14:08:42;;;;;;;23.30;10.80;;;;;;;;;;5012379;28;20490;-62
2022/02/26 14:11:08;;;;;;;19.13;9.02;;;;;;;;;;4993647;28;20097;-62
2022/02/26 14:13:34;;;;;;;19.80;10.13;;;;;;;;;;5011585;28;20323;-62
2022/02/26 14:16:05;;;;;;;23.00;10.57;;;;;;;;;;5012856;28;20115;-62
2022/02/26 14:18:33;;;;;;;24.48;10.77;;;;;;;;;;5012407;28;20339;-62